Portada
METAR-TAF:

METAR-TAF

Aeroports :

Dover, Delaware, Estats Units d'Amèrica

latitud: 39-08N, longitud: 075-28W, altitud: 9 m

Observació

L'informe es va fer fa 1 hora i 8 minuts, a les 10:56 UTC
Vent 8 kt del Oest/Nord-Oest
Temperatura 4°C
Humitat 65%
Pressió 1023 hPa
Visibilitat: 16.1 km
Cel clar

METAR: KDOV 211056Z 29008KT 10SM CLR 04/M02 A3022 RMK AO2A SLP237 T00411017 $

Hora: 07:04 (12:04 UTC)

Pronòstic

L'informe es va fer fa 4 hores i 4 minuts, a les 08:00 UTC
Pronòstic vàlid del 21 a les 08 UTC al 22 a les 14 UTC
Vent 9 kt del Oest/Sud-Oest
Visibilitat: 2121 m
Escasses núvols a una alçada de 5000 ft
Evolucionant progressivament
l' 22 a les 00 UTC al 22 a les 01 UTC
Vent 6 kt del Oest
Visibilitat 10 km o més
Escasses núvols a una alçada de 4000 ft
Cel ennuvolat a una alçada de 8000 ft

TAF: KDOV 210800Z 2108/2214 29009KT 9999 FEW050 QNH3013INS WND 25009KT AFT 2121 BECMG 2200/2201 28006KT 9999 FEW040 BKN080 QNH2989INS TX10/2118Z TN01/2111Z

Observacions i pronòstics meteorològics de més de 4000 aeroports (METAR i TAF).

Les estacions disponibles són els punts grocs i vermells al mapa.

Posi el ratolí al punt desitjat per veure el nom de l'estació.

Feu clic per veure les observacions i els pronòstics meteorològics.

Per canviar el mapa: feu clic els botons verds amb una creu de color negre per apropar; al botó verd amb un guió per allunyar la imatge; o en les fletxes verdes per a mapes adjacents.


METAR-TAF: